sensor_id;sensor_type;location;lat;lon;timestamp;P1;durP1;ratioP1;P2;durP2;ratioP2
9270;SDS011;4673;53.458;9.940;2022-07-01T00:00:36;6.55;;;6.45;;
9270;SDS011;4673;53.458;9.940;2022-07-01T00:03:01;5.15;;;5.15;;
9270;SDS011;4673;53.458;9.940;2022-07-01T00:05:28;4.18;;;4.18;;
9270;SDS011;4673;53.458;9.940;2022-07-01T00:07:53;4.30;;;4.30;;
9270;SDS011;4673;53.458;9.940;2022-07-01T00:10:19;4.72;;;4.72;;
9270;SDS011;4673;53.458;9.940;2022-07-01T00:12:45;4.93;;;4.93;;
9270;SDS011;4673;53.458;9.940;2022-07-01T00:15:11;4.50;;;4.50;;
9270;SDS011;4673;53.458;9.940;2022-07-01T00:17:37;4.32;;;4.32;;
9270;SDS011;4673;53.458;9.940;2022-07-01T00:20:03;4.20;;;4.20;;
9270;SDS011;4673;53.458;9.940;2022-07-01T00:22:29;4.22;;;4.22;;
9270;SDS011;4673;53.458;9.940;2022-07-01T00:24:55;4.72;;;4.72;;
9270;SDS011;4673;53.458;9.940;2022-07-01T00:27:20;4.95;;;4.95;;
9270;SDS011;4673;53.458;9.940;2022-07-01T00:29:47;4.75;;;4.75;;
9270;SDS011;4673;53.458;9.940;2022-07-01T00:32:13;5.65;;;5.63;;
9270;SDS011;4673;53.458;9.940;2022-07-01T00:34:38;5.13;;;5.13;;
9270;SDS011;4673;53.458;9.940;2022-07-01T00:37:04;0.15;;;0.15;;
9270;SDS011;4673;53.458;9.940;2022-07-01T00:39:29;0.10;;;0.10;;
9270;SDS011;4673;53.458;9.940;2022-07-01T00:41:59;0.10;;;0.10;;
9270;SDS011;4673;53.458;9.940;2022-07-01T00:44:26;0.10;;;0.10;;
9270;SDS011;4673;53.458;9.940;2022-07-01T00:46:51;0.10;;;0.10;;
9270;SDS011;4673;53.458;9.940;2022-07-01T00:49:18;0.10;;;0.10;;
9270;SDS011;4673;53.458;9.940;2022-07-01T00:51:44;0.10;;;0.10;;
9270;SDS011;4673;53.458;9.940;2022-07-01T00:54:10;0.65;;;0.65;;
9270;SDS011;4673;53.458;9.940;2022-07-01T00:56:37;0.10;;;0.10;;
9270;SDS011;4673;53.458;9.940;2022-07-01T00:59:02;0.10;;;0.10;;
9270;SDS011;4673;53.458;9.940;2022-07-01T01:01:28;1.23;;;1.23;;
9270;SDS011;4673;53.458;9.940;2022-07-01T01:03:54;0.45;;;0.45;;
9270;SDS011;4673;53.458;9.940;2022-07-01T01:06:20;0.17;;;0.17;;
9270;SDS011;4673;53.458;9.940;2022-07-01T01:08:46;0.30;;;0.30;;
9270;SDS011;4673;53.458;9.940;2022-07-01T01:11:14;0.17;;;0.17;;
9270;SDS011;4673;53.458;9.940;2022-07-01T01:13:41;0.10;;;0.10;;
9270;SDS011;4673;53.458;9.940;2022-07-01T01:16:06;0.10;;;0.10;;
9270;SDS011;4673;53.458;9.940;2022-07-01T01:18:32;0.10;;;0.10;;
9270;SDS011;4673;53.458;9.940;2022-07-01T01:20:58;0.10;;;0.10;;
9270;SDS011;4673;53.458;9.940;2022-07-01T01:23:24;0.10;;;0.10;;
9270;SDS011;4673;53.458;9.940;2022-07-01T01:25:50;0.15;;;0.15;;
9270;SDS011;4673;53.458;9.940;2022-07-01T01:28:16;0.15;;;0.15;;
9270;SDS011;4673;53.458;9.940;2022-07-01T01:30:41;0.10;;;0.10;;
9270;SDS011;4673;53.458;9.940;2022-07-01T01:33:07;0.10;;;0.10;;
9270;SDS011;4673;53.458;9.940;2022-07-01T01:35:33;0.10;;;0.10;;
9270;SDS011;4673;53.458;9.940;2022-07-01T01:37:59;0.10;;;0.10;;
9270;SDS011;4673;53.458;9.940;2022-07-01T01:40:25;0.95;;;0.95;;
9270;SDS011;4673;53.458;9.940;2022-07-01T01:42:51;0.10;;;0.10;;
9270;SDS011;4673;53.458;9.940;2022-07-01T01:45:17;0.10;;;0.10;;
9270;SDS011;4673;53.458;9.940;2022-07-01T01:47:43;0.10;;;0.10;;
9270;SDS011;4673;53.458;9.940;2022-07-01T01:50:09;0.10;;;0.10;;
9270;SDS011;4673;53.458;9.940;2022-07-01T01:52:36;0.10;;;0.10;;
9270;SDS011;4673;53.458;9.940;2022-07-01T01:55:03;0.10;;;0.10;;
9270;SDS011;4673;53.458;9.940;2022-07-01T01:57:30;0.10;;;0.10;;
9270;SDS011;4673;53.458;9.940;2022-07-01T01:59:56;0.20;;;0.20;;
9270;SDS011;4673;53.458;9.940;2022-07-01T02:02:21;0.10;;;0.10;;
9270;SDS011;4673;53.458;9.940;2022-07-01T02:04:47;0.10;;;0.10;;
9270;SDS011;4673;53.458;9.940;2022-07-01T02:07:13;0.10;;;0.10;;
9270;SDS011;4673;53.458;9.940;2022-07-01T02:09:39;0.10;;;0.10;;
9270;SDS011;4673;53.458;9.940;2022-07-01T02:12:05;0.20;;;0.20;;
9270;SDS011;4673;53.458;9.940;2022-07-01T02:14:31;0.10;;;0.10;;
9270;SDS011;4673;53.458;9.940;2022-07-01T02:16:56;0.13;;;0.13;;
9270;SDS011;4673;53.458;9.940;2022-07-01T02:19:22;0.10;;;0.10;;
9270;SDS011;4673;53.458;9.940;2022-07-01T02:21:47;0.10;;;0.10;;
9270;SDS011;4673;53.458;9.940;2022-07-01T02:24:16;0.13;;;0.13;;
9270;SDS011;4673;53.458;9.940;2022-07-01T02:26:42;0.20;;;0.20;;
9270;SDS011;4673;53.458;9.940;2022-07-01T02:29:07;0.40;;;0.40;;
9270;SDS011;4673;53.458;9.940;2022-07-01T02:31:33;0.25;;;0.25;;
9270;SDS011;4673;53.458;9.940;2022-07-01T02:33:59;0.10;;;0.10;;
9270;SDS011;4673;53.458;9.940;2022-07-01T02:36:24;0.10;;;0.10;;
9270;SDS011;4673;53.458;9.940;2022-07-01T02:38:50;0.10;;;0.10;;
9270;SDS011;4673;53.458;9.940;2022-07-01T02:41:16;0.47;;;0.47;;
9270;SDS011;4673;53.458;9.940;2022-07-01T02:43:41;0.10;;;0.10;;
9270;SDS011;4673;53.458;9.940;2022-07-01T02:46:07;0.10;;;0.10;;
9270;SDS011;4673;53.458;9.940;2022-07-01T02:48:33;0.10;;;0.10;;
9270;SDS011;4673;53.458;9.940;2022-07-01T02:50:58;0.10;;;0.10;;
9270;SDS011;4673;53.458;9.940;2022-07-01T02:53:24;0.32;;;0.32;;
9270;SDS011;4673;53.458;9.940;2022-07-01T02:55:50;0.10;;;0.10;;
9270;SDS011;4673;53.458;9.940;2022-07-01T02:58:16;0.17;;;0.17;;
9270;SDS011;4673;53.458;9.940;2022-07-01T03:00:42;0.10;;;0.10;;
9270;SDS011;4673;53.458;9.940;2022-07-01T03:03:08;0.10;;;0.10;;
9270;SDS011;4673;53.458;9.940;2022-07-01T03:05:33;0.10;;;0.10;;
9270;SDS011;4673;53.458;9.940;2022-07-01T03:07:59;0.10;;;0.10;;
9270;SDS011;4673;53.458;9.940;2022-07-01T03:10:25;0.10;;;0.10;;
9270;SDS011;4673;53.458;9.940;2022-07-01T03:12:51;0.10;;;0.10;;
9270;SDS011;4673;53.458;9.940;2022-07-01T03:15:17;0.10;;;0.10;;
9270;SDS011;4673;53.458;9.940;2022-07-01T03:17:44;0.10;;;0.10;;
9270;SDS011;4673;53.458;9.940;2022-07-01T03:20:14;0.10;;;0.10;;
9270;SDS011;4673;53.458;9.940;2022-07-01T03:22:42;0.10;;;0.10;;
9270;SDS011;4673;53.458;9.940;2022-07-01T03:25:08;0.20;;;0.20;;
9270;SDS011;4673;53.458;9.940;2022-07-01T03:27:34;0.20;;;0.20;;
9270;SDS011;4673;53.458;9.940;2022-07-01T03:30:01;0.10;;;0.10;;
9270;SDS011;4673;53.458;9.940;2022-07-01T03:32:29;0.10;;;0.10;;
9270;SDS011;4673;53.458;9.940;2022-07-01T03:34:54;0.10;;;0.10;;
9270;SDS011;4673;53.458;9.940;2022-07-01T03:37:21;0.10;;;0.10;;
9270;SDS011;4673;53.458;9.940;2022-07-01T03:39:47;0.30;;;0.30;;
9270;SDS011;4673;53.458;9.940;2022-07-01T03:42:14;0.10;;;0.10;;
9270;SDS011;4673;53.458;9.940;2022-07-01T03:44:40;0.10;;;0.10;;
9270;SDS011;4673;53.458;9.940;2022-07-01T03:47:06;0.10;;;0.10;;
9270;SDS011;4673;53.458;9.940;2022-07-01T03:49:32;0.10;;;0.10;;
9270;SDS011;4673;53.458;9.940;2022-07-01T03:51:58;0.10;;;0.10;;
9270;SDS011;4673;53.458;9.940;2022-07-01T03:54:24;0.10;;;0.10;;
9270;SDS011;4673;53.458;9.940;2022-07-01T03:56:56;0.10;;;0.10;;
9270;SDS011;4673;53.458;9.940;2022-07-01T03:59:23;0.20;;;0.20;;
9270;SDS011;4673;53.458;9.940;2022-07-01T04:01:49;0.10;;;0.10;;
9270;SDS011;4673;53.458;9.940;2022-07-01T04:04:15;0.10;;;0.10;;
9270;SDS011;4673;53.458;9.940;2022-07-01T04:06:41;0.40;;;0.40;;
9270;SDS011;4673;53.458;9.940;2022-07-01T04:09:08;0.10;;;0.10;;
9270;SDS011;4673;53.458;9.940;2022-07-01T04:11:33;0.20;;;0.20;;
9270;SDS011;4673;53.458;9.940;2022-07-01T04:13:59;0.10;;;0.10;;
9270;SDS011;4673;53.458;9.940;2022-07-01T04:16:25;0.10;;;0.10;;
9270;SDS011;4673;53.458;9.940;2022-07-01T04:18:51;0.13;;;0.13;;
9270;SDS011;4673;53.458;9.940;2022-07-01T04:21:17;0.10;;;0.10;;
9270;SDS011;4673;53.458;9.940;2022-07-01T04:24:01;0.10;;;0.10;;
9270;SDS011;4673;53.458;9.940;2022-07-01T04:26:26;0.10;;;0.10;;
9270;SDS011;4673;53.458;9.940;2022-07-01T04:28:53;0.20;;;0.20;;
9270;SDS011;4673;53.458;9.940;2022-07-01T04:31:20;0.10;;;0.10;;
9270;SDS011;4673;53.458;9.940;2022-07-01T04:33:46;0.10;;;0.10;;
9270;SDS011;4673;53.458;9.940;2022-07-01T04:36:13;0.57;;;0.57;;
9270;SDS011;4673;53.458;9.940;2022-07-01T04:38:39;0.10;;;0.10;;
9270;SDS011;4673;53.458;9.940;2022-07-01T04:41:05;0.10;;;0.10;;
9270;SDS011;4673;53.458;9.940;2022-07-01T04:43:49;0.10;;;0.10;;
9270;SDS011;4673;53.458;9.940;2022-07-01T04:46:14;0.10;;;0.10;;
9270;SDS011;4673;53.458;9.940;2022-07-01T04:48:40;0.20;;;0.20;;
9270;SDS011;4673;53.458;9.940;2022-07-01T04:51:06;0.10;;;0.10;;
9270;SDS011;4673;53.458;9.940;2022-07-01T04:53:32;0.10;;;0.10;;
9270;SDS011;4673;53.458;9.940;2022-07-01T04:55:57;0.25;;;0.25;;
9270;SDS011;4673;53.458;9.940;2022-07-01T04:58:23;0.20;;;0.20;;
9270;SDS011;4673;53.458;9.940;2022-07-01T05:00:49;0.10;;;0.10;;
9270;SDS011;4673;53.458;9.940;2022-07-01T05:03:15;0.22;;;0.22;;
9270;SDS011;4673;53.458;9.940;2022-07-01T05:05:42;0.10;;;0.10;;
9270;SDS011;4673;53.458;9.940;2022-07-01T05:08:07;0.20;;;0.20;;
9270;SDS011;4673;53.458;9.940;2022-07-01T05:10:33;2.97;;;2.97;;
9270;SDS011;4673;53.458;9.940;2022-07-01T05:12:59;0.20;;;0.20;;
9270;SDS011;4673;53.458;9.940;2022-07-01T05:15:24;0.20;;;0.20;;
9270;SDS011;4673;53.458;9.940;2022-07-01T05:17:50;0.20;;;0.20;;
9270;SDS011;4673;53.458;9.940;2022-07-01T05:20:34;0.10;;;0.10;;
9270;SDS011;4673;53.458;9.940;2022-07-01T05:23:18;0.10;;;0.10;;
9270;SDS011;4673;53.458;9.940;2022-07-01T05:25:44;0.17;;;0.17;;
9270;SDS011;4673;53.458;9.940;2022-07-01T05:28:09;0.15;;;0.15;;
9270;SDS011;4673;53.458;9.940;2022-07-01T05:30:35;0.10;;;0.10;;
9270;SDS011;4673;53.458;9.940;2022-07-01T05:33:01;0.20;;;0.20;;
9270;SDS011;4673;53.458;9.940;2022-07-01T05:35:26;0.10;;;0.10;;
9270;SDS011;4673;53.458;9.940;2022-07-01T05:37:52;0.10;;;0.10;;
9270;SDS011;4673;53.458;9.940;2022-07-01T05:40:18;0.15;;;0.15;;
9270;SDS011;4673;53.458;9.940;2022-07-01T05:42:43;0.10;;;0.10;;
9270;SDS011;4673;53.458;9.940;2022-07-01T05:45:09;0.10;;;0.10;;
9270;SDS011;4673;53.458;9.940;2022-07-01T05:47:35;0.13;;;0.13;;
9270;SDS011;4673;53.458;9.940;2022-07-01T05:50:00;0.20;;;0.20;;
9270;SDS011;4673;53.458;9.940;2022-07-01T05:52:26;0.15;;;0.15;;
9270;SDS011;4673;53.458;9.940;2022-07-01T05:54:51;0.20;;;0.20;;
9270;SDS011;4673;53.458;9.940;2022-07-01T05:57:17;0.20;;;0.20;;
9270;SDS011;4673;53.458;9.940;2022-07-01T05:59:43;0.10;;;0.10;;
9270;SDS011;4673;53.458;9.940;2022-07-01T06:02:08;0.10;;;0.10;;
9270;SDS011;4673;53.458;9.940;2022-07-01T06:04:34;0.20;;;0.20;;
9270;SDS011;4673;53.458;9.940;2022-07-01T06:07:00;0.28;;;0.28;;
9270;SDS011;4673;53.458;9.940;2022-07-01T06:09:25;0.17;;;0.17;;
9270;SDS011;4673;53.458;9.940;2022-07-01T06:11:51;0.20;;;0.20;;
9270;SDS011;4673;53.458;9.940;2022-07-01T06:14:16;0.38;;;0.38;;
9270;SDS011;4673;53.458;9.940;2022-07-01T06:16:42;0.20;;;0.20;;
9270;SDS011;4673;53.458;9.940;2022-07-01T06:19:08;0.20;;;0.20;;
9270;SDS011;4673;53.458;9.940;2022-07-01T06:21:33;0.10;;;0.10;;
9270;SDS011;4673;53.458;9.940;2022-07-01T06:23:59;0.17;;;0.17;;
9270;SDS011;4673;53.458;9.940;2022-07-01T06:26:25;0.20;;;0.20;;
9270;SDS011;4673;53.458;9.940;2022-07-01T06:28:50;0.20;;;0.20;;
9270;SDS011;4673;53.458;9.940;2022-07-01T06:31:16;0.10;;;0.10;;
9270;SDS011;4673;53.458;9.940;2022-07-01T06:33:42;0.20;;;0.20;;
9270;SDS011;4673;53.458;9.940;2022-07-01T06:36:07;0.20;;;0.20;;
9270;SDS011;4673;53.458;9.940;2022-07-01T06:38:33;0.15;;;0.15;;
9270;SDS011;4673;53.458;9.940;2022-07-01T06:40:59;0.10;;;0.10;;
9270;SDS011;4673;53.458;9.940;2022-07-01T06:43:43;0.15;;;0.15;;
9270;SDS011;4673;53.458;9.940;2022-07-01T06:46:09;0.20;;;0.20;;
9270;SDS011;4673;53.458;9.940;2022-07-01T06:48:35;0.10;;;0.10;;
9270;SDS011;4673;53.458;9.940;2022-07-01T06:51:01;0.10;;;0.10;;
9270;SDS011;4673;53.458;9.940;2022-07-01T06:53:29;0.52;;;0.52;;
9270;SDS011;4673;53.458;9.940;2022-07-01T06:55:56;0.20;;;0.20;;
9270;SDS011;4673;53.458;9.940;2022-07-01T06:58:22;0.20;;;0.20;;
9270;SDS011;4673;53.458;9.940;2022-07-01T07:00:47;0.20;;;0.20;;
9270;SDS011;4673;53.458;9.940;2022-07-01T07:03:13;0.10;;;0.10;;
9270;SDS011;4673;53.458;9.940;2022-07-01T07:05:39;0.20;;;0.20;;
9270;SDS011;4673;53.458;9.940;2022-07-01T07:08:04;0.13;;;0.13;;
9270;SDS011;4673;53.458;9.940;2022-07-01T07:10:30;0.10;;;0.10;;
9270;SDS011;4673;53.458;9.940;2022-07-01T07:12:56;0.13;;;0.13;;
9270;SDS011;4673;53.458;9.940;2022-07-01T07:15:21;0.20;;;0.20;;
9270;SDS011;4673;53.458;9.940;2022-07-01T07:17:47;0.20;;;0.20;;
9270;SDS011;4673;53.458;9.940;2022-07-01T07:20:13;0.17;;;0.17;;
9270;SDS011;4673;53.458;9.940;2022-07-01T07:22:38;0.20;;;0.20;;
9270;SDS011;4673;53.458;9.940;2022-07-01T07:25:04;0.20;;;0.20;;
9270;SDS011;4673;53.458;9.940;2022-07-01T07:27:30;0.20;;;0.20;;
9270;SDS011;4673;53.458;9.940;2022-07-01T07:29:55;0.10;;;0.10;;
9270;SDS011;4673;53.458;9.940;2022-07-01T07:32:21;0.20;;;0.20;;
9270;SDS011;4673;53.458;9.940;2022-07-01T07:34:47;0.10;;;0.10;;
9270;SDS011;4673;53.458;9.940;2022-07-01T07:37:12;0.20;;;0.20;;
9270;SDS011;4673;53.458;9.940;2022-07-01T07:39:38;0.13;;;0.13;;
9270;SDS011;4673;53.458;9.940;2022-07-01T07:42:03;0.38;;;0.38;;
9270;SDS011;4673;53.458;9.940;2022-07-01T07:44:30;0.10;;;0.10;;
9270;SDS011;4673;53.458;9.940;2022-07-01T07:46:56;0.10;;;0.10;;
9270;SDS011;4673;53.458;9.940;2022-07-01T07:49:22;0.20;;;0.20;;
9270;SDS011;4673;53.458;9.940;2022-07-01T07:51:50;0.20;;;0.20;;
9270;SDS011;4673;53.458;9.940;2022-07-01T07:54:16;0.10;;;0.10;;
9270;SDS011;4673;53.458;9.940;2022-07-01T07:56:41;0.10;;;0.10;;
9270;SDS011;4673;53.458;9.940;2022-07-01T07:59:07;0.17;;;0.17;;
9270;SDS011;4673;53.458;9.940;2022-07-01T08:01:33;0.10;;;0.10;;
9270;SDS011;4673;53.458;9.940;2022-07-01T08:03:59;0.20;;;0.20;;
9270;SDS011;4673;53.458;9.940;2022-07-01T08:06:25;0.13;;;0.13;;
9270;SDS011;4673;53.458;9.940;2022-07-01T08:08:50;0.20;;;0.20;;
9270;SDS011;4673;53.458;9.940;2022-07-01T08:11:16;0.17;;;0.17;;
9270;SDS011;4673;53.458;9.940;2022-07-01T08:13:42;0.20;;;0.20;;
9270;SDS011;4673;53.458;9.940;2022-07-01T08:16:08;0.20;;;0.20;;
9270;SDS011;4673;53.458;9.940;2022-07-01T08:18:34;0.20;;;0.20;;
9270;SDS011;4673;53.458;9.940;2022-07-01T08:21:00;0.20;;;0.20;;
9270;SDS011;4673;53.458;9.940;2022-07-01T08:23:25;0.10;;;0.10;;
9270;SDS011;4673;53.458;9.940;2022-07-01T08:25:51;0.10;;;0.10;;
9270;SDS011;4673;53.458;9.940;2022-07-01T08:28:17;0.20;;;0.20;;
9270;SDS011;4673;53.458;9.940;2022-07-01T08:30:42;0.10;;;0.10;;
9270;SDS011;4673;53.458;9.940;2022-07-01T08:33:09;0.20;;;0.20;;
9270;SDS011;4673;53.458;9.940;2022-07-01T08:35:35;0.10;;;0.10;;
9270;SDS011;4673;53.458;9.940;2022-07-01T08:38:01;0.10;;;0.10;;
9270;SDS011;4673;53.458;9.940;2022-07-01T08:40:27;0.50;;;0.50;;
9270;SDS011;4673;53.458;9.940;2022-07-01T08:42:55;0.10;;;0.10;;
9270;SDS011;4673;53.458;9.940;2022-07-01T08:45:29;0.10;;;0.10;;
9270;SDS011;4673;53.458;9.940;2022-07-01T08:47:57;0.10;;;0.10;;
9270;SDS011;4673;53.458;9.940;2022-07-01T08:50:26;0.13;;;0.13;;
9270;SDS011;4673;53.458;9.940;2022-07-01T08:52:53;0.20;;;0.20;;
9270;SDS011;4673;53.458;9.940;2022-07-01T08:55:19;0.10;;;0.10;;
9270;SDS011;4673;53.458;9.940;2022-07-01T08:57:46;0.10;;;0.10;;
9270;SDS011;4673;53.458;9.940;2022-07-01T09:00:12;0.10;;;0.10;;
9270;SDS011;4673;53.458;9.940;2022-07-01T09:02:51;0.10;;;0.10;;
9270;SDS011;4673;53.458;9.940;2022-07-01T09:05:19;0.10;;;0.10;;
9270;SDS011;4673;53.458;9.940;2022-07-01T09:07:45;0.20;;;0.20;;
9270;SDS011;4673;53.458;9.940;2022-07-01T09:10:16;0.10;;;0.10;;
9270;SDS011;4673;53.458;9.940;2022-07-01T09:12:43;0.10;;;0.10;;
9270;SDS011;4673;53.458;9.940;2022-07-01T09:18:05;0.10;;;0.10;;
9270;SDS011;4673;53.458;9.940;2022-07-01T09:20:45;0.20;;;0.20;;
9270;SDS011;4673;53.458;9.940;2022-07-01T09:23:15;0.10;;;0.10;;
9270;SDS011;4673;53.458;9.940;2022-07-01T09:25:45;0.10;;;0.10;;
9270;SDS011;4673;53.458;9.940;2022-07-01T09:30:46;0.10;;;0.10;;
9270;SDS011;4673;53.458;9.940;2022-07-01T09:33:17;0.10;;;0.10;;
9270;SDS011;4673;53.458;9.940;2022-07-01T09:35:48;0.10;;;0.10;;
9270;SDS011;4673;53.458;9.940;2022-07-01T09:38:16;0.10;;;0.10;;
9270;SDS011;4673;53.458;9.940;2022-07-01T09:43:28;0.15;;;0.15;;
9270;SDS011;4673;53.458;9.940;2022-07-01T09:45:56;2.90;;;2.90;;
9270;SDS011;4673;53.458;9.940;2022-07-01T09:51:01;2.65;;;2.65;;
9270;SDS011;4673;53.458;9.940;2022-07-01T09:53:28;2.72;;;2.72;;
9270;SDS011;4673;53.458;9.940;2022-07-01T09:55:54;2.25;;;2.25;;
9270;SDS011;4673;53.458;9.940;2022-07-01T09:58:20;2.45;;;2.45;;
9270;SDS011;4673;53.458;9.940;2022-07-01T10:00:46;2.33;;;2.33;;
9270;SDS011;4673;53.458;9.940;2022-07-01T10:03:12;2.50;;;2.50;;
9270;SDS011;4673;53.458;9.940;2022-07-01T10:05:39;2.60;;;2.60;;
9270;SDS011;4673;53.458;9.940;2022-07-01T10:13:30;2.90;;;2.90;;
9270;SDS011;4673;53.458;9.940;2022-07-01T10:15:58;2.67;;;2.67;;
9270;SDS011;4673;53.458;9.940;2022-07-01T10:18:26;2.90;;;2.90;;
9270;SDS011;4673;53.458;9.940;2022-07-01T10:20:53;2.90;;;2.90;;
9270;SDS011;4673;53.458;9.940;2022-07-01T10:23:21;3.13;;;3.13;;
9270;SDS011;4673;53.458;9.940;2022-07-01T10:25:49;3.08;;;3.08;;
9270;SDS011;4673;53.458;9.940;2022-07-01T10:41:37;3.63;;;3.63;;
9270;SDS011;4673;53.458;9.940;2022-07-01T10:44:07;3.20;;;3.20;;
9270;SDS011;4673;53.458;9.940;2022-07-01T10:49:20;3.70;;;3.70;;
9270;SDS011;4673;53.458;9.940;2022-07-01T10:59:49;4.38;;;4.38;;
9270;SDS011;4673;53.458;9.940;2022-07-01T11:02:20;4.68;;;4.68;;
9270;SDS011;4673;53.458;9.940;2022-07-01T11:04:52;4.20;;;4.20;;
9270;SDS011;4673;53.458;9.940;2022-07-01T11:07:42;4.03;;;4.03;;
9270;SDS011;4673;53.458;9.940;2022-07-01T11:10:10;4.00;;;4.00;;
9270;SDS011;4673;53.458;9.940;2022-07-01T11:12:37;3.75;;;3.75;;
9270;SDS011;4673;53.458;9.940;2022-07-01T11:15:03;4.10;;;4.10;;
9270;SDS011;4673;53.458;9.940;2022-07-01T11:17:35;4.90;;;4.90;;
9270;SDS011;4673;53.458;9.940;2022-07-01T11:20:13;4.80;;;4.80;;
9270;SDS011;4673;53.458;9.940;2022-07-01T11:22:39;4.75;;;4.75;;
9270;SDS011;4673;53.458;9.940;2022-07-01T11:25:05;5.18;;;5.18;;
9270;SDS011;4673;53.458;9.940;2022-07-01T11:27:34;4.95;;;4.95;;
9270;SDS011;4673;53.458;9.940;2022-07-01T11:30:02;5.85;;;5.85;;
9270;SDS011;4673;53.458;9.940;2022-07-01T11:32:35;5.50;;;5.50;;
9270;SDS011;4673;53.458;9.940;2022-07-01T11:35:02;5.15;;;5.15;;
9270;SDS011;4673;53.458;9.940;2022-07-01T11:41:04;4.65;;;4.65;;
9270;SDS011;4673;53.458;9.940;2022-07-01T11:43:36;5.97;;;5.97;;
9270;SDS011;4673;53.458;9.940;2022-07-01T11:46:03;4.50;;;4.50;;
9270;SDS011;4673;53.458;9.940;2022-07-01T11:48:43;5.43;;;5.43;;
9270;SDS011;4673;53.458;9.940;2022-07-01T11:51:13;4.95;;;4.95;;
9270;SDS011;4673;53.458;9.940;2022-07-01T11:53:41;5.38;;;5.38;;
9270;SDS011;4673;53.458;9.940;2022-07-01T11:56:09;5.88;;;5.88;;
9270;SDS011;4673;53.458;9.940;2022-07-01T11:58:42;5.55;;;5.55;;
9270;SDS011;4673;53.458;9.940;2022-07-01T12:01:08;5.78;;;5.78;;
9270;SDS011;4673;53.458;9.940;2022-07-01T12:03:34;6.32;;;6.32;;
9270;SDS011;4673;53.458;9.940;2022-07-01T12:06:01;6.70;;;6.70;;
9270;SDS011;4673;53.458;9.940;2022-07-01T12:08:27;6.10;;;6.10;;
9270;SDS011;4673;53.458;9.940;2022-07-01T12:10:53;6.35;;;6.35;;
9270;SDS011;4673;53.458;9.940;2022-07-01T12:13:20;6.68;;;6.68;;
9270;SDS011;4673;53.458;9.940;2022-07-01T12:15:47;6.03;;;6.03;;
9270;SDS011;4673;53.458;9.940;2022-07-01T12:18:14;6.15;;;6.15;;
9270;SDS011;4673;53.458;9.940;2022-07-01T12:20:47;6.32;;;6.32;;
9270;SDS011;4673;53.458;9.940;2022-07-01T12:23:13;6.47;;;6.47;;
9270;SDS011;4673;53.458;9.940;2022-07-01T12:25:39;5.43;;;5.43;;
9270;SDS011;4673;53.458;9.940;2022-07-01T12:28:23;6.68;;;6.68;;
9270;SDS011;4673;53.458;9.940;2022-07-01T12:30:59;5.88;;;5.88;;
9270;SDS011;4673;53.458;9.940;2022-07-01T12:33:35;6.95;;;6.95;;
9270;SDS011;4673;53.458;9.940;2022-07-01T12:36:03;7.82;;;7.82;;
9270;SDS011;4673;53.458;9.940;2022-07-01T12:38:29;6.55;;;6.55;;
9270;SDS011;4673;53.458;9.940;2022-07-01T12:40:56;6.63;;;6.63;;
9270;SDS011;4673;53.458;9.940;2022-07-01T12:43:23;7.03;;;7.03;;
9270;SDS011;4673;53.458;9.940;2022-07-01T12:45:49;6.22;;;6.22;;
9270;SDS011;4673;53.458;9.940;2022-07-01T12:48:15;5.30;;;5.30;;
9270;SDS011;4673;53.458;9.940;2022-07-01T12:50:41;6.18;;;6.18;;
9270;SDS011;4673;53.458;9.940;2022-07-01T12:53:07;6.55;;;6.55;;
9270;SDS011;4673;53.458;9.940;2022-07-01T12:55:36;4.75;;;4.75;;
9270;SDS011;4673;53.458;9.940;2022-07-01T12:58:03;4.82;;;4.82;;
9270;SDS011;4673;53.458;9.940;2022-07-01T13:00:30;4.65;;;4.65;;
9270;SDS011;4673;53.458;9.940;2022-07-01T13:02:57;4.20;;;4.20;;
9270;SDS011;4673;53.458;9.940;2022-07-01T13:05:24;4.47;;;4.47;;
9270;SDS011;4673;53.458;9.940;2022-07-01T13:07:51;4.43;;;4.43;;
9270;SDS011;4673;53.458;9.940;2022-07-01T13:10:17;4.10;;;4.10;;
9270;SDS011;4673;53.458;9.940;2022-07-01T13:12:43;4.20;;;4.20;;
9270;SDS011;4673;53.458;9.940;2022-07-01T13:15:10;4.05;;;4.05;;
9270;SDS011;4673;53.458;9.940;2022-07-01T13:17:37;3.63;;;3.63;;
9270;SDS011;4673;53.458;9.940;2022-07-01T13:20:02;3.70;;;3.70;;
9270;SDS011;4673;53.458;9.940;2022-07-01T13:22:29;3.55;;;3.55;;
9270;SDS011;4673;53.458;9.940;2022-07-01T13:24:54;3.53;;;3.53;;
9270;SDS011;4673;53.458;9.940;2022-07-01T13:27:20;3.25;;;3.25;;
9270;SDS011;4673;53.458;9.940;2022-07-01T13:29:48;4.05;;;4.05;;
9270;SDS011;4673;53.458;9.940;2022-07-01T13:32:14;4.93;;;4.93;;
9270;SDS011;4673;53.458;9.940;2022-07-01T13:34:40;4.75;;;4.75;;
9270;SDS011;4673;53.458;9.940;2022-07-01T13:37:05;5.00;;;5.00;;
9270;SDS011;4673;53.458;9.940;2022-07-01T13:39:31;5.57;;;5.57;;
9270;SDS011;4673;53.458;9.940;2022-07-01T13:41:57;5.68;;;5.68;;
9270;SDS011;4673;53.458;9.940;2022-07-01T13:44:22;5.75;;;5.75;;
9270;SDS011;4673;53.458;9.940;2022-07-01T13:46:48;5.72;;;5.72;;
9270;SDS011;4673;53.458;9.940;2022-07-01T13:49:14;4.97;;;4.97;;
9270;SDS011;4673;53.458;9.940;2022-07-01T13:51:40;5.30;;;5.30;;
9270;SDS011;4673;53.458;9.940;2022-07-01T13:54:06;5.00;;;5.00;;
9270;SDS011;4673;53.458;9.940;2022-07-01T13:56:35;5.07;;;5.07;;
9270;SDS011;4673;53.458;9.940;2022-07-01T13:59:00;4.38;;;4.38;;
9270;SDS011;4673;53.458;9.940;2022-07-01T14:01:27;5.90;;;5.90;;
9270;SDS011;4673;53.458;9.940;2022-07-01T14:03:53;6.38;;;6.38;;
9270;SDS011;4673;53.458;9.940;2022-07-01T14:06:19;5.60;;;5.60;;
9270;SDS011;4673;53.458;9.940;2022-07-01T14:08:45;5.95;;;5.95;;
9270;SDS011;4673;53.458;9.940;2022-07-01T14:11:10;6.25;;;6.25;;
9270;SDS011;4673;53.458;9.940;2022-07-01T14:13:36;5.53;;;5.53;;
9270;SDS011;4673;53.458;9.940;2022-07-01T14:16:04;5.53;;;5.53;;
9270;SDS011;4673;53.458;9.940;2022-07-01T14:18:31;6.20;;;6.20;;
9270;SDS011;4673;53.458;9.940;2022-07-01T14:21:01;6.20;;;6.20;;
9270;SDS011;4673;53.458;9.940;2022-07-01T14:23:28;6.05;;;6.05;;
9270;SDS011;4673;53.458;9.940;2022-07-01T14:25:53;6.32;;;6.32;;
9270;SDS011;4673;53.458;9.940;2022-07-01T14:28:19;4.97;;;4.97;;
9270;SDS011;4673;53.458;9.940;2022-07-01T14:30:45;5.30;;;5.30;;
9270;SDS011;4673;53.458;9.940;2022-07-01T14:33:10;5.60;;;5.60;;
9270;SDS011;4673;53.458;9.940;2022-07-01T14:35:37;6.30;;;6.30;;
9270;SDS011;4673;53.458;9.940;2022-07-01T14:38:03;5.85;;;5.85;;
9270;SDS011;4673;53.458;9.940;2022-07-01T14:40:30;5.85;;;5.85;;
9270;SDS011;4673;53.458;9.940;2022-07-01T14:42:57;5.53;;;5.53;;
9270;SDS011;4673;53.458;9.940;2022-07-01T14:45:22;5.32;;;5.32;;
9270;SDS011;4673;53.458;9.940;2022-07-01T14:47:48;5.18;;;5.18;;
9270;SDS011;4673;53.458;9.940;2022-07-01T14:50:14;5.43;;;5.43;;
9270;SDS011;4673;53.458;9.940;2022-07-01T14:52:39;5.35;;;5.35;;
9270;SDS011;4673;53.458;9.940;2022-07-01T14:55:05;4.88;;;4.88;;
9270;SDS011;4673;53.458;9.940;2022-07-01T14:57:31;5.57;;;5.57;;
9270;SDS011;4673;53.458;9.940;2022-07-01T14:59:57;5.93;;;5.93;;
9270;SDS011;4673;53.458;9.940;2022-07-01T15:02:23;5.47;;;5.47;;
9270;SDS011;4673;53.458;9.940;2022-07-01T15:04:49;6.22;;;6.22;;
9270;SDS011;4673;53.458;9.940;2022-07-01T15:07:15;6.18;;;6.18;;
9270;SDS011;4673;53.458;9.940;2022-07-01T15:09:41;6.55;;;6.55;;
9270;SDS011;4673;53.458;9.940;2022-07-01T15:12:07;5.72;;;5.72;;
9270;SDS011;4673;53.458;9.940;2022-07-01T15:14:33;6.40;;;6.40;;
9270;SDS011;4673;53.458;9.940;2022-07-01T15:16:59;7.03;;;7.03;;
9270;SDS011;4673;53.458;9.940;2022-07-01T15:19:25;6.15;;;6.15;;
9270;SDS011;4673;53.458;9.940;2022-07-01T15:21:55;6.43;;;6.43;;
9270;SDS011;4673;53.458;9.940;2022-07-01T15:24:22;6.60;;;6.60;;
9270;SDS011;4673;53.458;9.940;2022-07-01T15:26:48;5.88;;;5.88;;
9270;SDS011;4673;53.458;9.940;2022-07-01T15:29:14;5.95;;;5.95;;
9270;SDS011;4673;53.458;9.940;2022-07-01T15:31:40;6.07;;;6.07;;
9270;SDS011;4673;53.458;9.940;2022-07-01T15:34:06;6.82;;;6.82;;
9270;SDS011;4673;53.458;9.940;2022-07-01T15:36:32;7.00;;;7.00;;
9270;SDS011;4673;53.458;9.940;2022-07-01T15:38:58;7.05;;;7.05;;
9270;SDS011;4673;53.458;9.940;2022-07-01T15:41:25;6.97;;;6.97;;
9270;SDS011;4673;53.458;9.940;2022-07-01T15:43:52;6.15;;;6.15;;
9270;SDS011;4673;53.458;9.940;2022-07-01T15:46:18;6.68;;;6.68;;
9270;SDS011;4673;53.458;9.940;2022-07-01T15:48:44;5.78;;;5.78;;
9270;SDS011;4673;53.458;9.940;2022-07-01T15:51:10;6.03;;;6.03;;
9270;SDS011;4673;53.458;9.940;2022-07-01T15:53:36;6.00;;;6.00;;
9270;SDS011;4673;53.458;9.940;2022-07-01T15:56:02;6.72;;;6.72;;